Time;durP1;ratioP1;P1;durP2;ratioP2;P2;SDS_P1;SDS_P2;PMS_P1;PMS_P2;Temp;Humidity;BMP_temperature;BMP_pressure;BME280_temperature;BME280_humidity;BME280_pressure;Samples;Min_cycle;Max_cycle;Signal;HPM_P1;HPM_P2
2023/05/12 00:00:09;;;;;;;31.03;24.57;;;13.30;1.00;;;;;;4986687;28;20204;-61
2023/05/12 00:02:41;;;;;;;31.23;25.10;;;13.40;1.00;;;;;;4984391;28;20336;-62
2023/05/12 00:05:08;;;;;;;35.00;25.13;;;13.30;1.00;;;;;;4964512;28;20284;-61
2023/05/12 00:07:35;;;;;;;29.87;23.83;;;13.30;1.00;;;;;;4986897;28;20208;-61
2023/05/12 00:10:03;;;;;;;32.10;24.07;;;13.30;1.00;;;;;;4967907;28;20759;-60
2023/05/12 00:12:30;;;;;;;28.77;22.67;;;13.40;99.90;;;;;;4985268;28;20198;-60
2023/05/12 00:14:57;;;;;;;29.63;23.20;;;13.40;99.90;;;;;;4985926;28;20189;-60
2023/05/12 00:17:26;;;;;;;29.30;22.80;;;13.30;99.90;;;;;;4969329;28;20217;-60
2023/05/12 00:19:53;;;;;;;28.17;23.63;;;13.30;99.90;;;;;;4980944;28;20198;-60
2023/05/12 00:22:20;;;;;;;27.13;22.77;;;13.30;99.90;;;;;;4987239;28;20684;-61
2023/05/12 00:24:47;;;;;;;27.43;22.50;;;13.30;99.90;;;;;;4987108;28;20198;-60
2023/05/12 00:27:14;;;;;;;29.23;21.43;;;13.20;1.00;;;;;;4994309;28;20206;-61
2023/05/12 00:29:41;;;;;;;26.63;22.23;;;13.20;1.00;;;;;;4958791;28;20305;-60
2023/05/12 00:32:08;;;;;;;28.23;21.57;;;13.30;1.00;;;;;;4989866;28;20213;-60
2023/05/12 00:34:35;;;;;;;24.40;20.03;;;13.20;1.00;;;;;;4989789;28;20197;-61
2023/05/12 00:37:02;;;;;;;25.77;21.10;;;13.20;1.00;;;;;;4971641;28;20205;-60
2023/05/12 00:39:29;;;;;;;27.67;21.93;;;13.20;1.00;;;;;;4989204;28;20229;-60
2023/05/12 00:41:58;;;;;;;24.97;21.10;;;13.20;1.00;;;;;;4985515;28;20638;-60
2023/05/12 00:44:25;;;;;;;26.33;21.27;;;13.20;1.00;;;;;;4994941;28;20211;-61
2023/05/12 00:46:55;;;;;;;26.67;21.77;;;13.20;1.00;;;;;;4988849;28;20208;-61
2023/05/12 00:49:24;;;;;;;27.03;20.43;;;13.20;99.90;;;;;;4996805;28;20241;-61
2023/05/12 00:51:54;;;;;;;26.30;20.93;;;13.10;1.00;;;;;;4984809;28;20225;-62
2023/05/12 00:54:22;;;;;;;26.13;20.20;;;13.20;1.00;;;;;;4949655;28;20272;-61
2023/05/12 00:56:49;;;;;;;28.20;20.13;;;13.10;1.00;;;;;;5003868;28;20219;-61
2023/05/12 00:59:16;;;;;;;26.70;21.70;;;13.10;1.00;;;;;;5004558;28;20190;-61
2023/05/12 01:01:43;;;;;;;24.47;19.57;;;13.20;99.90;;;;;;4984272;28;20208;-63
2023/05/12 01:04:11;;;;;;;23.87;19.47;;;13.10;99.90;;;;;;4991776;23;20234;-62
2023/05/12 01:06:48;;;;;;;23.53;19.13;;;13.10;99.90;;;;;;4939395;29;20259;-62
2023/05/12 01:09:16;;;;;;;27.47;19.73;;;13.10;99.90;;;;;;4951388;28;20222;-63
2023/05/12 01:11:43;;;;;;;20.63;18.17;;;13.10;99.90;;;;;;4935411;28;20785;-62
2023/05/12 01:14:10;;;;;;;23.27;19.07;;;13.10;99.90;;;;;;4950177;28;20190;-63
2023/05/12 01:16:49;;;;;;;23.90;19.07;;;13.10;99.90;;;;;;4969674;28;20202;-61
2023/05/12 01:19:37;;;;;;;23.43;19.03;;;13.10;99.90;;;;;;4961770;28;20226;-60
2023/05/12 01:22:06;;;;;;;27.17;18.00;;;13.10;99.90;;;;;;4942548;29;20646;-61
2023/05/12 01:24:39;;;;;;;24.87;17.47;;;13.10;99.90;;;;;;4945087;29;20278;-61
2023/05/12 01:27:10;;;;;;;19.77;16.37;;;13.10;99.90;;;;;;4959443;28;20217;-61
2023/05/12 01:29:37;;;;;;;19.47;16.93;;;13.10;99.90;;;;;;4950295;28;20305;-60
2023/05/12 01:32:05;;;;;;;20.03;16.47;;;13.20;99.90;;;;;;4947743;28;20198;-61
2023/05/12 01:34:33;;;;;;;19.57;17.37;;;13.10;99.90;;;;;;4952301;28;20213;-61
2023/05/12 01:37:00;;;;;;;19.60;15.37;;;13.10;99.90;;;;;;4971977;28;20199;-62
2023/05/12 01:39:27;;;;;;;19.77;15.80;;;13.10;97.20;;;;;;4959413;28;20662;-62
2023/05/12 01:41:55;;;;;;;18.60;16.07;;;13.10;99.90;;;;;;4965061;28;20261;-62
2023/05/12 01:44:22;;;;;;;18.90;15.77;;;13.10;99.90;;;;;;4909039;29;20210;-61
2023/05/12 01:46:49;;;;;;;18.30;15.23;;;13.10;99.90;;;;;;4942329;28;20616;-62
2023/05/12 01:49:16;;;;;;;17.80;15.93;;;13.10;99.90;;;;;;4935389;29;20215;-61
2023/05/12 01:51:44;;;;;;;19.30;15.57;;;13.10;99.90;;;;;;4936439;29;20211;-62
2023/05/12 01:54:12;;;;;;;19.30;15.07;;;13.20;99.90;;;;;;4952020;28;20203;-62
2023/05/12 01:56:39;;;;;;;20.00;16.13;;;13.20;99.90;;;;;;4936397;29;21107;-62
2023/05/12 01:59:07;;;;;;;19.83;15.80;;;13.20;91.60;;;;;;4950889;28;20205;-61
2023/05/12 02:01:34;;;;;;;17.43;15.27;;;13.20;36.50;;;;;;4930189;29;20206;-63
2023/05/12 02:04:02;;;;;;;21.10;15.07;;;13.20;95.20;;;;;;4941282;28;20720;-61
2023/05/12 02:06:30;;;;;;;17.30;15.40;;;13.20;85.90;;;;;;4913281;29;20200;-62
2023/05/12 02:08:57;;;;;;;17.47;15.07;;;13.20;90.80;;;;;;4938268;28;20211;-62
2023/05/12 02:11:25;;;;;;;17.53;15.47;;;13.20;42.00;;;;;;4926460;29;20223;-61
2023/05/12 02:13:51;;;;;;;19.67;15.83;;;13.20;14.20;;;;;;4904743;29;20196;-62
2023/05/12 02:16:19;;;;;;;21.77;15.97;;;13.20;73.80;;;;;;4908215;29;20520;-62
2023/05/12 02:18:46;;;;;;;17.77;15.87;;;13.20;32.10;;;;;;4907878;29;20196;-62
2023/05/12 02:21:13;;;;;;;18.43;16.43;;;13.10;62.00;;;;;;4905841;29;20314;-62
2023/05/12 02:23:40;;;;;;;18.40;15.90;;;13.10;57.80;;;;;;4939761;28;20667;-62
2023/05/12 02:26:07;;;;;;;20.37;16.57;;;13.10;99.90;;;;;;4926043;29;20212;-62
2023/05/12 02:28:35;;;;;;;19.27;15.67;;;13.10;99.90;;;;;;4907624;29;20197;-61
2023/05/12 02:31:03;;;;;;;19.87;17.70;;;13.10;99.90;;;;;;4915437;29;20699;-63
2023/05/12 02:33:30;;;;;;;23.47;16.43;;;13.10;99.90;;;;;;4906673;29;20199;-64
2023/05/12 02:35:57;;;;;;;22.83;16.13;;;13.10;99.90;;;;;;4908377;29;20187;-64
2023/05/12 02:38:24;;;;;;;20.03;15.80;;;13.00;99.90;;;;;;4924854;29;20199;-64
2023/05/12 02:40:51;;;;;;;19.50;16.03;;;13.10;99.90;;;;;;4925075;29;20203;-67
2023/05/12 02:43:19;;;;;;;18.20;15.70;;;13.00;99.90;;;;;;4908627;29;20795;-65
2023/05/12 02:45:46;;;;;;;19.13;16.73;;;13.00;99.90;;;;;;4920731;29;20345;-66
2023/05/12 02:48:13;;;;;;;17.77;15.30;;;13.00;99.90;;;;;;4923733;29;20695;-66
2023/05/12 02:50:43;;;;;;;17.60;15.07;;;13.00;52.80;;;;;;4910323;29;20235;-66
2023/05/12 02:53:10;;;;;;;16.73;14.67;;;12.90;77.10;;;;;;4922904;29;20703;-66
2023/05/12 02:55:37;;;;;;;16.13;14.43;;;12.90;65.00;;;;;;4943592;28;20202;-64
2023/05/12 02:58:04;;;;;;;18.17;14.50;;;12.90;83.40;;;;;;4910952;29;20544;-66
2023/05/12 03:00:31;;;;;;;16.77;14.97;;;12.90;46.90;;;;;;4943322;28;20219;-64
2023/05/12 03:02:58;;;;;;;16.30;14.60;;;12.90;99.90;;;;;;4942596;28;20643;-64
2023/05/12 03:05:26;;;;;;;17.00;12.77;;;12.90;66.70;;;;;;4930535;29;20204;-64
2023/05/12 03:07:53;;;;;;;15.50;13.07;;;12.90;1.00;;;;;;4931196;29;20203;-65
2023/05/12 03:10:21;;;;;;;14.57;13.03;;;12.80;1.00;;;;;;4911092;29;20219;-69
2023/05/12 03:12:51;;;;;;;18.60;13.03;;;12.80;1.00;;;;;;4926261;29;20277;-68
2023/05/12 03:15:19;;;;;;;16.23;12.93;;;12.80;1.00;;;;;;4927324;29;20188;-69
2023/05/12 03:17:46;;;;;;;12.77;11.53;;;12.70;1.00;;;;;;4917767;29;20198;-69
2023/05/12 03:20:14;;;;;;;12.77;11.47;;;12.60;1.00;;;;;;4913590;29;20341;-69
2023/05/12 03:22:41;;;;;;;12.20;10.93;;;12.70;1.00;;;;;;4943856;28;20287;-69
2023/05/12 03:25:09;;;;;;;14.73;11.43;;;12.70;1.00;;;;;;4916888;29;20638;-67
2023/05/12 03:27:36;;;;;;;13.53;10.73;;;12.70;1.00;;;;;;4932154;29;20204;-67
2023/05/12 03:30:04;;;;;;;10.27;8.60;;;12.70;1.00;;;;;;4947386;28;20220;-69
2023/05/12 03:32:34;;;;;;;9.53;8.53;;;12.70;1.00;;;;;;4916992;29;20204;-68
2023/05/12 03:35:02;;;;;;;10.00;7.70;;;12.70;1.00;;;;;;4927744;29;20208;-68
2023/05/12 03:37:29;;;;;;;9.23;8.33;;;12.70;1.00;;;;;;4913551;29;20480;-69
2023/05/12 03:39:56;;;;;;;10.13;8.23;;;12.70;1.00;;;;;;4910041;29;20742;-69
2023/05/12 03:42:23;;;;;;;8.77;7.97;;;12.70;99.90;;;;;;4926164;29;20310;-69
2023/05/12 03:44:51;;;;;;;8.87;7.97;;;12.60;99.90;;;;;;4922183;29;20258;-69
2023/05/12 03:47:18;;;;;;;11.07;8.33;;;12.60;99.90;;;;;;4927262;29;20687;-69
2023/05/12 03:49:45;;;;;;;9.53;8.20;;;12.70;99.90;;;;;;4920557;29;20231;-70
2023/05/12 03:52:12;;;;;;;10.40;8.73;;;12.70;1.00;;;;;;4935657;28;20619;-69
2023/05/12 03:54:39;;;;;;;10.60;9.00;;;12.70;1.00;;;;;;4905862;29;20568;-69
2023/05/12 03:57:07;;;;;;;10.50;8.97;;;12.70;1.00;;;;;;4908464;29;20294;-69
2023/05/12 03:59:34;;;;;;;10.40;9.33;;;12.70;1.00;;;;;;4937059;28;20204;-71
2023/05/12 04:02:01;;;;;;;14.33;9.97;;;12.70;1.00;;;;;;4921599;29;20825;-68
2023/05/12 04:04:28;;;;;;;13.27;10.87;;;12.70;1.00;;;;;;4932572;28;20228;-70
2023/05/12 04:06:55;;;;;;;12.20;10.93;;;12.70;1.00;;;;;;4903046;29;20196;-70
2023/05/12 04:09:22;;;;;;;12.23;10.60;;;12.70;1.00;;;;;;4903545;29;20307;-69
2023/05/12 04:11:50;;;;;;;14.40;11.40;;;12.80;1.00;;;;;;4901147;29;20229;-68
2023/05/12 04:14:17;;;;;;;10.13;9.13;;;12.80;1.00;;;;;;4903619;29;20848;-69
2023/05/12 04:16:44;;;;;;;12.03;9.00;;;12.90;1.00;;;;;;4903817;29;20280;-69
2023/05/12 04:19:11;;;;;;;10.63;9.63;;;12.90;99.90;;;;;;4904065;29;20243;-69
2023/05/12 04:21:38;;;;;;;10.17;9.17;;;12.90;99.90;;;;;;4903154;29;20204;-68
2023/05/12 04:24:05;;;;;;;10.47;8.97;;;12.90;99.90;;;;;;4902394;29;20220;-71
2023/05/12 04:26:35;;;;;;;9.70;7.77;;;12.90;99.90;;;;;;4901790;29;20667;-71
2023/05/12 04:29:02;;;;;;;9.13;8.07;;;13.00;99.90;;;;;;4933977;28;20279;-71
2023/05/12 04:31:32;;;;;;;10.37;7.77;;;13.00;99.90;;;;;;4917920;29;20218;-70
2023/05/12 04:34:00;;;;;;;6.97;6.23;;;13.30;99.90;;;;;;4903423;29;20196;-70
2023/05/12 04:36:29;;;;;;;7.23;5.80;;;13.30;56.50;;;;;;4931177;28;20204;-68
2023/05/12 04:38:57;;;;;;;7.10;5.80;;;13.20;1.00;;;;;;4902001;29;20542;-68
2023/05/12 04:41:24;;;;;;;7.03;5.80;;;13.20;2.00;;;;;;4915746;29;20243;-67
2023/05/12 04:43:51;;;;;;;8.50;6.00;;;13.20;1.00;;;;;;4919569;29;20295;-67
2023/05/12 04:46:21;;;;;;;6.27;5.67;;;13.20;19.90;;;;;;4916523;29;20208;-68
2023/05/12 04:48:48;;;;;;;8.40;6.20;;;13.20;8.50;;;;;;4902599;29;20204;-68
2023/05/12 04:51:15;;;;;;;6.63;5.87;;;13.20;47.00;;;;;;4917469;29;20311;-67
2023/05/12 04:53:42;;;;;;;6.00;5.40;;;13.30;21.00;;;;;;4900283;29;20735;-68
2023/05/12 04:56:08;;;;;;;7.33;5.20;;;13.30;14.50;;;;;;4917503;29;20232;-68
2023/05/12 04:58:37;;;;;;;7.50;5.73;;;13.30;1.00;;;;;;4902291;29;20225;-68
2023/05/12 05:01:05;;;;;;;6.57;5.87;;;13.40;1.00;;;;;;4904523;29;20699;-68
2023/05/12 05:03:32;;;;;;;7.80;5.73;;;13.40;1.00;;;;;;4924829;29;20240;-67
2023/05/12 05:06:00;;;;;;;6.13;5.43;;;13.40;1.00;;;;;;4910750;29;20688;-67
2023/05/12 05:08:27;;;;;;;6.00;5.40;;;13.40;1.00;;;;;;4941657;28;20239;-67
2023/05/12 05:10:54;;;;;;;5.70;5.17;;;13.40;1.00;;;;;;4911625;29;20242;-67
2023/05/12 05:13:21;;;;;;;6.20;5.10;;;13.40;1.00;;;;;;4910846;29;20283;-68
2023/05/12 05:15:50;;;;;;;6.43;5.10;;;13.40;1.00;;;;;;4910872;29;20672;-68
2023/05/12 05:18:17;;;;;;;6.00;4.70;;;13.30;1.00;;;;;;4924844;29;20204;-67
2023/05/12 05:20:54;;;;;;;6.40;5.07;;;13.40;1.00;;;;;;4911054;29;20198;-68
2023/05/12 05:23:25;;;;;;;5.77;5.03;;;13.40;1.00;;;;;;4898969;29;20204;-68
2023/05/12 05:25:52;;;;;;;5.33;4.83;;;13.50;1.00;;;;;;4910834;29;20204;-68
2023/05/12 05:28:19;;;;;;;6.67;4.73;;;13.50;1.00;;;;;;4910562;29;20208;-68
2023/05/12 05:30:46;;;;;;;8.47;4.83;;;13.50;1.00;;;;;;4912188;29;20271;-68
2023/05/12 05:33:14;;;;;;;5.43;4.87;;;13.50;1.00;;;;;;4910325;29;20205;-69
2023/05/12 05:35:41;;;;;;;7.13;4.50;;;13.40;1.00;;;;;;4932565;28;20205;-68
2023/05/12 05:38:09;;;;;;;5.53;5.00;;;13.40;1.00;;;;;;4906802;29;20227;-68
2023/05/12 05:40:37;;;;;;;6.57;3.93;;;13.50;1.00;;;;;;4896717;29;20274;-68
2023/05/12 05:43:19;;;;;;;7.20;4.47;;;13.50;1.00;;;;;;4930554;28;20564;-70
2023/05/12 05:45:48;;;;;;;7.60;4.67;;;13.40;1.00;;;;;;4901631;29;20204;-68
2023/05/12 05:48:16;;;;;;;5.70;5.00;;;13.50;1.00;;;;;;4899217;29;20565;-67
2023/05/12 05:50:43;;;;;;;5.10;4.50;;;13.50;1.00;;;;;;4899405;29;20761;-68
2023/05/12 05:53:10;;;;;;;4.57;3.87;;;13.50;1.00;;;;;;4930902;28;20252;-67
2023/05/12 05:55:37;;;;;;;5.87;4.43;;;13.60;1.00;;;;;;4900284;29;20200;-67
2023/05/12 05:58:05;;;;;;;6.57;4.23;;;13.60;1.00;;;;;;4900089;29;20259;-68
2023/05/12 06:00:32;;;;;;;5.63;3.73;;;13.60;1.00;;;;;;4899627;29;20518;-68
2023/05/12 06:02:59;;;;;;;5.23;4.10;;;13.70;1.00;;;;;;4900397;29;20205;-68
2023/05/12 06:05:26;;;;;;;6.10;4.40;;;13.80;1.00;;;;;;4884031;29;20643;-68
2023/05/12 06:07:53;;;;;;;8.80;4.10;;;13.90;1.00;;;;;;4884815;29;20210;-67
2023/05/12 06:10:21;;;;;;;4.07;3.77;;;13.90;1.00;;;;;;4898885;29;20236;-67
2023/05/12 06:12:49;;;;;;;4.30;3.60;;;14.10;1.00;;;;;;4883051;29;20196;-67
2023/05/12 06:15:16;;;;;;;6.37;3.63;;;14.10;1.00;;;;;;4882314;29;20262;-67
2023/05/12 06:17:44;;;;;;;4.53;4.07;;;14.10;1.00;;;;;;4886714;29;20228;-67
2023/05/12 06:20:14;;;;;;;4.50;3.70;;;14.20;1.00;;;;;;4883711;29;20201;-67
2023/05/12 06:22:41;;;;;;;7.20;4.60;;;14.20;1.00;;;;;;4900516;29;20205;-68
2023/05/12 06:25:09;;;;;;;8.53;4.10;;;14.30;1.00;;;;;;4916536;29;20562;-68
2023/05/12 06:27:37;;;;;;;5.82;4.03;;;14.30;1.00;;;;;;4890535;29;20216;-68
2023/05/12 06:30:05;;;;;;;3.72;3.40;;;14.40;1.00;;;;;;4886094;29;20331;-67
2023/05/12 06:32:32;;;;;;;3.60;3.30;;;14.50;1.00;;;;;;4872529;29;20216;-70
2023/05/12 06:34:59;;;;;;;3.10;2.72;;;14.70;1.00;;;;;;4886965;29;20228;-68
2023/05/12 06:37:26;;;;;;;4.53;3.20;;;14.80;1.00;;;;;;4899051;29;20265;-69
2023/05/12 06:39:53;;;;;;;3.53;3.08;;;14.90;1.00;;;;;;4914416;29;20210;-67
2023/05/12 06:42:23;;;;;;;5.00;3.20;;;14.90;1.00;;;;;;4886021;29;20232;-67
2023/05/12 06:44:50;;;;;;;4.32;3.42;;;14.80;1.00;;;;;;4913733;29;20223;-66
2023/05/12 06:47:19;;;;;;;3.33;3.03;;;14.80;1.00;;;;;;4885939;29;20265;-68
2023/05/12 06:49:48;;;;;;;2.97;2.70;;;14.90;1.00;;;;;;4887791;29;20841;-68
2023/05/12 06:52:16;;;;;;;5.63;2.97;;;15.10;1.00;;;;;;4887892;29;20332;-67
2023/05/12 06:54:43;;;;;;;4.65;2.95;;;15.10;1.00;;;;;;4915716;29;20201;-68
2023/05/12 06:57:09;;;;;;;3.00;2.70;;;15.30;1.00;;;;;;4888479;29;20201;-67
2023/05/12 06:59:36;;;;;;;3.70;2.80;;;15.50;1.00;;;;;;4908129;29;20237;-68
2023/05/12 07:02:03;;;;;;;4.85;2.90;;;15.60;1.00;;;;;;4916386;29;20207;-69
2023/05/12 07:04:30;;;;;;;3.67;2.83;;;15.80;1.00;;;;;;4913914;29;20247;-67
2023/05/12 07:06:57;;;;;;;4.75;3.03;;;15.80;1.00;;;;;;4927716;29;20673;-67
2023/05/12 07:09:25;;;;;;;4.60;3.00;;;15.80;1.00;;;;;;4923654;29;20197;-67
2023/05/12 07:11:52;;;;;;;3.22;2.45;;;15.90;1.00;;;;;;4931056;29;20559;-68
2023/05/12 07:14:19;;;;;;;3.30;3.00;;;16.20;99.90;;;;;;4913678;29;20220;-67
2023/05/12 07:16:46;;;;;;;4.75;2.63;;;16.60;99.90;;;;;;4925297;29;20703;-67
2023/05/12 07:19:13;;;;;;;2.72;2.53;;;16.90;99.90;;;;;;4911359;29;20220;-67
2023/05/12 07:21:40;;;;;;;3.78;2.53;;;17.00;99.90;;;;;;4913008;29;20215;-67
2023/05/12 07:24:06;;;;;;;4.15;2.30;;;16.90;99.90;;;;;;4930963;29;20202;-67
2023/05/12 07:26:33;;;;;;;3.38;3.08;;;16.60;99.90;;;;;;4919011;29;20231;-67
2023/05/12 07:29:02;;;;;;;3.83;2.60;;;16.40;99.90;;;;;;4928759;29;20194;-67
2023/05/12 07:31:30;;;;;;;3.85;2.40;;;16.40;99.90;;;;;;4913440;29;20734;-66
2023/05/12 07:33:57;;;;;;;2.88;2.58;;;16.30;99.90;;;;;;4927547;29;20203;-66
2023/05/12 07:36:24;;;;;;;4.95;2.80;;;16.50;99.90;;;;;;4920077;29;20203;-67
2023/05/12 07:38:51;;;;;;;3.55;2.80;;;16.50;99.90;;;;;;4926322;29;20684;-66
2023/05/12 07:41:18;;;;;;;5.57;3.00;;;16.70;99.90;;;;;;4933518;29;20203;-67
2023/05/12 07:43:45;;;;;;;6.65;3.00;;;16.40;99.90;;;;;;4926448;29;20200;-67
2023/05/12 07:46:12;;;;;;;4.13;2.95;;;16.30;99.90;;;;;;4956713;28;20286;-66
2023/05/12 07:48:39;;;;;;;3.35;2.75;;;16.30;99.90;;;;;;4912718;29;20196;-67
2023/05/12 07:51:07;;;;;;;4.28;3.03;;;16.30;99.90;;;;;;4927364;29;20575;-68
2023/05/12 07:53:34;;;;;;;4.03;2.92;;;16.30;99.90;;;;;;4912934;29;20785;-67
2023/05/12 07:56:01;;;;;;;3.17;2.88;;;16.30;99.90;;;;;;4921403;29;20200;-68
2023/05/12 07:58:28;;;;;;;3.10;2.80;;;16.40;99.90;;;;;;4929621;29;20731;-67
2023/05/12 08:00:58;;;;;;;3.67;2.55;;;16.40;99.90;;;;;;4928687;29;20207;-66
2023/05/12 08:03:26;;;;;;;3.00;2.70;;;16.60;99.90;;;;;;4908060;29;20273;-66
2023/05/12 08:05:53;;;;;;;4.57;2.92;;;16.70;99.90;;;;;;4940300;28;20210;-67
2023/05/12 08:08:20;;;;;;;4.88;2.78;;;16.90;99.90;;;;;;4927452;29;20203;-66
2023/05/12 08:10:47;;;;;;;3.58;2.65;;;17.20;99.90;;;;;;4926937;29;20258;-67
2023/05/12 08:13:14;;;;;;;3.83;2.50;;;17.60;99.90;;;;;;4905102;29;20728;-68
2023/05/12 08:15:41;;;;;;;5.82;2.67;;;17.90;99.90;;;;;;4913896;29;20289;-67
2023/05/12 08:18:09;;;;;;;3.17;2.78;;;18.20;99.90;;;;;;4911625;29;20671;-67
2023/05/12 08:20:36;;;;;;;3.28;2.60;;;18.70;99.90;;;;;;4925903;29;20699;-66
2023/05/12 08:23:03;;;;;;;3.55;2.60;;;18.60;99.90;;;;;;4910011;29;20223;-67
2023/05/12 08:25:30;;;;;;;3.35;2.75;;;18.50;99.90;;;;;;4928551;29;20762;-65
2023/05/12 08:27:58;;;;;;;2.53;2.33;;;18.40;99.90;;;;;;4922558;29;20313;-67
2023/05/12 08:30:26;;;;;;;3.40;2.45;;;18.30;99.90;;;;;;4907442;29;20200;-67
2023/05/12 08:32:55;;;;;;;5.78;2.65;;;18.20;99.90;;;;;;4923857;29;20211;-68
2023/05/12 08:35:25;;;;;;;2.53;2.33;;;18.70;99.90;;;;;;4923021;29;20207;-66
2023/05/12 08:37:52;;;;;;;3.15;2.85;;;19.30;99.90;;;;;;4908010;29;20192;-64
2023/05/12 08:40:23;;;;;;;3.13;2.60;;;18.90;99.90;;;;;;4907558;29;20663;-65
2023/05/12 08:43:36;;;;;;;3.67;2.20;;;19.30;99.90;;;;;;4920248;29;20679;-64
2023/05/12 08:46:05;;;;;;;4.30;2.35;;;19.70;99.90;;;;;;4918437;29;20278;-64
2023/05/12 08:48:33;;;;;;;2.80;2.55;;;20.80;99.90;;;;;;4902256;29;20204;-64
2023/05/12 08:51:02;;;;;;;2.47;1.95;;;23.30;99.90;;;;;;4905404;29;20219;-63
2023/05/12 08:53:29;;;;;;;2.15;1.85;;;25.10;99.90;;;;;;4935412;28;20199;-63
2023/05/12 08:56:01;;;;;;;3.63;2.40;;;24.40;99.90;;;;;;4918841;29;20223;-63
2023/05/12 08:58:49;;;;;;;4.07;2.17;;;22.90;99.90;;;;;;4918746;29;20204;-64
2023/05/12 09:01:17;;;;;;;2.97;2.30;;;21.80;99.90;;;;;;4920953;29;20263;-62
2023/05/12 09:03:44;;;;;;;3.58;2.35;;;21.40;99.90;;;;;;4928924;29;20243;-63
2023/05/12 09:06:12;;;;;;;3.33;2.80;;;21.50;99.90;;;;;;4930567;29;20246;-62
2023/05/12 09:08:40;;;;;;;2.83;2.20;;;22.10;99.90;;;;;;4926736;29;20200;-63
2023/05/12 09:11:10;;;;;;;7.20;2.40;;;22.30;99.90;;;;;;4912261;29;20222;-64
2023/05/12 09:14:01;;;;;;;3.42;2.50;;;22.50;99.90;;;;;;4910696;29;20205;-64
2023/05/12 09:16:33;;;;;;;6.07;2.30;;;23.50;99.90;;;;;;4925552;29;20652;-63
2023/05/12 09:19:01;;;;;;;3.15;2.15;;;23.10;99.90;;;;;;4928838;29;20270;-64
2023/05/12 09:21:32;;;;;;;4.60;2.20;;;23.50;99.90;;;;;;4921613;29;20214;-62
2023/05/12 09:24:05;;;;;;;3.42;2.08;;;24.20;99.90;;;;;;4913500;29;20214;-64
2023/05/12 09:26:46;;;;;;;4.22;2.47;;;24.90;99.90;;;;;;4931114;29;20194;-62
2023/05/12 09:29:14;;;;;;;2.70;2.50;;;25.50;99.90;;;;;;4929731;29;20195;-65
2023/05/12 09:31:59;;;;;;;5.15;2.38;;;25.00;99.90;;;;;;4925604;29;20244;-63
2023/05/12 09:34:37;;;;;;;2.80;1.95;;;26.20;99.90;;;;;;4904961;29;20191;-63
2023/05/12 09:37:05;;;;;;;2.97;2.08;;;27.00;99.90;;;;;;4921594;29;20196;-62
2023/05/12 09:39:33;;;;;;;2.20;2.00;;;26.90;99.90;;;;;;4923350;29;20243;-62
2023/05/12 09:42:00;;;;;;;2.95;2.00;;;28.10;99.90;;;;;;4921900;29;20196;-61
2023/05/12 09:44:30;;;;;;;6.53;2.28;;;28.50;99.90;;;;;;4908480;29;20271;-62
2023/05/12 09:47:06;;;;;;;2.70;2.00;;;26.30;99.90;;;;;;4920987;29;20203;-61
2023/05/12 09:49:33;;;;;;;4.45;2.58;;;25.90;99.90;;;;;;4920534;29;20676;-62
2023/05/12 09:52:03;;;;;;;5.25;2.20;;;27.00;99.90;;;;;;4915232;29;20279;-62
2023/05/12 09:54:32;;;;;;;2.45;2.05;;;26.30;99.90;;;;;;4917433;29;20196;-62
2023/05/12 09:57:02;;;;;;;2.05;1.88;;;25.80;99.90;;;;;;4925122;29;20203;-62
2023/05/12 09:59:31;;;;;;;4.43;2.22;;;26.70;99.90;;;;;;4924895;29;20207;-62
2023/05/12 10:02:00;;;;;;;2.35;2.10;;;27.80;99.90;;;;;;4909607;29;20578;-62
2023/05/12 10:04:46;;;;;;;2.80;1.95;;;27.80;99.90;;;;;;4918515;29;20659;-62
2023/05/12 10:07:14;;;;;;;3.00;2.47;;;28.60;99.90;;;;;;4926377;29;20278;-61
2023/05/12 10:09:44;;;;;;;9.25;2.20;;;27.60;99.90;;;;;;4907707;29;20286;-62
2023/05/12 10:12:11;;;;;;;9.90;2.60;;;26.80;99.90;;;;;;4907204;29;20238;-64
2023/05/12 10:14:39;;;;;;;4.65;2.10;;;25.50;99.90;;;;;;4921908;29;20255;-62
2023/05/12 10:17:08;;;;;;;7.03;2.53;;;26.40;99.90;;;;;;4933755;28;20283;-62
2023/05/12 10:19:35;;;;;;;2.47;2.28;;;26.90;99.90;;;;;;4922922;29;20207;-62
2023/05/12 10:22:04;;;;;;;3.85;2.20;;;26.50;99.90;;;;;;4920121;29;20266;-62
2023/05/12 10:24:32;;;;;;;2.90;2.60;;;25.90;99.90;;;;;;4928042;29;20283;-64
2023/05/12 10:27:00;;;;;;;2.70;2.50;;;24.00;99.90;;;;;;4924376;29;20207;-64
2023/05/12 10:29:29;;;;;;;3.40;2.25;;;25.00;99.90;;;;;;4922645;29;20208;-64
2023/05/12 10:31:57;;;;;;;3.50;2.08;;;26.60;99.90;;;;;;4918291;29;20212;-61
2023/05/12 10:34:35;;;;;;;2.70;2.50;;;26.90;99.90;;;;;;4907062;29;20203;-62
2023/05/12 10:37:09;;;;;;;3.33;2.03;;;26.90;99.90;;;;;;4923923;29;20203;-62
2023/05/12 10:39:46;;;;;;;3.10;2.47;;;27.00;99.90;;;;;;4914242;29;20620;-64
2023/05/12 10:42:16;;;;;;;3.08;2.22;;;26.00;99.90;;;;;;4937202;28;20225;-62
2023/05/12 10:44:51;;;;;;;4.15;2.33;;;26.60;99.90;;;;;;4889988;29;20710;-62
2023/05/12 10:47:22;;;;;;;3.85;2.38;;;26.20;99.90;;;;;;4921536;29;20449;-64
2023/05/12 10:49:58;;;;;;;2.70;2.40;;;25.50;99.90;;;;;;4920852;29;20199;-64
2023/05/12 10:52:25;;;;;;;2.70;2.50;;;24.40;99.90;;;;;;4916693;29;20289;-65
2023/05/12 10:55:02;;;;;;;3.58;2.70;;;24.30;99.90;;;;;;4922907;29;20192;-64
2023/05/12 10:57:30;;;;;;;3.38;2.28;;;24.70;99.90;;;;;;4921671;29;20206;-64
2023/05/12 10:59:59;;;;;;;4.85;3.05;;;25.80;99.90;;;;;;4922921;29;20193;-64
2023/05/12 11:02:29;;;;;;;3.80;2.75;;;26.30;99.90;;;;;;4921361;29;20192;-65
2023/05/12 11:05:03;;;;;;;3.22;2.72;;;26.60;99.90;;;;;;4904472;29;20232;-61
2023/05/12 11:07:32;;;;;;;3.15;2.70;;;26.90;99.90;;;;;;4907689;29;20204;-64
2023/05/12 11:10:02;;;;;;;3.25;2.95;;;26.10;99.90;;;;;;4909067;29;20203;-64
2023/05/12 11:12:34;;;;;;;3.58;3.00;;;25.60;99.90;;;;;;4912477;29;20704;-64
2023/05/12 11:15:04;;;;;;;3.92;2.95;;;24.80;99.90;;;;;;4912684;29;20279;-63
2023/05/12 11:17:31;;;;;;;6.43;3.25;;;26.10;99.90;;;;;;4913616;29;20267;-63
2023/05/12 11:19:59;;;;;;;3.22;2.70;;;25.20;99.90;;;;;;4926509;29;20700;-65
2023/05/12 11:22:27;;;;;;;3.65;2.92;;;25.40;99.90;;;;;;4917451;29;20296;-63
2023/05/12 11:24:54;;;;;;;3.30;2.65;;;25.20;99.90;;;;;;4942231;28;20220;-64
2023/05/12 11:27:21;;;;;;;5.20;2.67;;;25.20;99.90;;;;;;4909822;29;20219;-63
2023/05/12 11:30:01;;;;;;;6.47;2.90;;;26.10;99.90;;;;;;4906337;29;20200;-65
2023/05/12 11:32:28;;;;;;;4.18;3.20;;;26.80;99.90;;;;;;4908261;29;20279;-63
2023/05/12 11:35:11;;;;;;;5.28;3.00;;;25.90;99.90;;;;;;4901744;29;20688;-63
2023/05/12 11:37:39;;;;;;;3.55;3.25;;;25.80;99.90;;;;;;4901633;29;20511;-63
2023/05/12 11:40:18;;;;;;;4.53;3.40;;;25.40;99.90;;;;;;4897818;29;20197;-64
2023/05/12 11:42:51;;;;;;;5.88;3.03;;;25.00;99.90;;;;;;4901184;29;20295;-64
2023/05/12 11:45:29;;;;;;;5.32;3.38;;;25.30;99.90;;;;;;4927782;28;20203;-63
2023/05/12 11:48:13;;;;;;;3.92;2.90;;;25.60;99.90;;;;;;4902103;29;20258;-63
2023/05/12 11:50:43;;;;;;;5.28;3.80;;;25.80;99.90;;;;;;4900980;29;20223;-63
2023/05/12 11:53:16;;;;;;;3.65;3.35;;;24.00;99.90;;;;;;4901445;29;20216;-62
2023/05/12 11:55:51;;;;;;;4.45;3.10;;;24.40;99.90;;;;;;4917768;29;20308;-63
2023/05/12 11:58:20;;;;;;;4.15;3.75;;;25.40;99.90;;;;;;4901881;29;20211;-63
2023/05/12 12:00:48;;;;;;;4.28;3.58;;;25.20;99.90;;;;;;4901849;29;20192;-63
2023/05/12 12:03:15;;;;;;;3.88;3.47;;;25.10;99.90;;;;;;4904551;29;20759;-63
2023/05/12 12:05:55;;;;;;;3.88;3.50;;;26.00;99.90;;;;;;4914989;29;22410;-63
2023/05/12 12:08:22;;;;;;;4.55;3.90;;;25.50;99.90;;;;;;4897410;29;20207;-63
2023/05/12 12:10:49;;;;;;;4.80;3.92;;;24.90;99.90;;;;;;4925074;29;20220;-63
2023/05/12 12:13:21;;;;;;;6.32;3.65;;;24.50;99.90;;;;;;4922010;29;20657;-65
2023/05/12 12:15:49;;;;;;;4.00;3.63;;;24.40;99.90;;;;;;4903450;29;20203;-63
2023/05/12 12:18:17;;;;;;;6.35;3.50;;;23.80;99.90;;;;;;4919703;29;20561;-65
2023/05/12 12:20:46;;;;;;;4.88;3.65;;;23.70;99.90;;;;;;4916333;29;20279;-63
2023/05/12 12:23:13;;;;;;;5.93;3.30;;;23.70;99.90;;;;;;4918979;29;20200;-63
2023/05/12 12:25:40;;;;;;;4.22;3.15;;;23.50;99.90;;;;;;4920062;29;20200;-63
2023/05/12 12:28:07;;;;;;;5.95;3.40;;;23.10;99.90;;;;;;4920137;29;20200;-63
2023/05/12 12:30:34;;;;;;;3.53;2.95;;;23.00;99.90;;;;;;4917507;29;20207;-63
2023/05/12 12:33:01;;;;;;;3.75;3.35;;;22.70;99.90;;;;;;4918064;29;20307;-63
2023/05/12 12:35:28;;;;;;;3.70;3.22;;;22.60;99.90;;;;;;4932140;28;20196;-64
2023/05/12 12:37:55;;;;;;;5.47;3.05;;;22.60;99.90;;;;;;4914036;29;20203;-63
2023/05/12 12:40:22;;;;;;;4.15;2.72;;;22.50;99.90;;;;;;4917206;29;20282;-63
2023/05/12 12:42:49;;;;;;;7.68;3.22;;;22.50;99.90;;;;;;4907418;29;20231;-62
2023/05/12 12:45:16;;;;;;;4.40;3.00;;;22.50;99.90;;;;;;4924079;29;20198;-63
2023/05/12 12:47:46;;;;;;;6.68;3.35;;;22.10;99.90;;;;;;4917080;29;20196;-63
2023/05/12 12:50:13;;;;;;;6.07;3.17;;;22.10;99.90;;;;;;4916148;29;23162;-64